createdAt,value
2019-03-15T00:00:28.534Z,4.66
2019-03-15T00:03:01.946Z,4.32
2019-03-15T00:05:42.689Z,4.90
2019-03-15T00:08:17.049Z,4.08
2019-03-15T00:10:51.974Z,3.50
2019-03-15T00:13:25.238Z,3.83
2019-03-15T00:15:58.419Z,4.26
2019-03-15T00:18:31.847Z,4.16
2019-03-15T00:21:05.998Z,4.29
2019-03-15T00:23:39.407Z,4.44
2019-03-15T00:26:12.798Z,4.79
2019-03-15T00:28:47.221Z,5.14
2019-03-15T00:31:21.999Z,5.12
2019-03-15T00:33:56.722Z,4.82
2019-03-15T00:36:30.244Z,4.46
2019-03-15T00:39:03.545Z,4.79
2019-03-15T00:41:36.915Z,4.43
2019-03-15T00:44:11.712Z,3.86
2019-03-15T00:46:45.336Z,5.22
2019-03-15T00:49:18.590Z,4.49
2019-03-15T00:51:51.977Z,4.93
2019-03-15T00:54:25.402Z,4.42
2019-03-15T00:56:58.785Z,4.02
2019-03-15T00:59:34.153Z,4.81
2019-03-15T01:02:07.518Z,5.28
2019-03-15T01:04:40.960Z,4.49
2019-03-15T01:07:14.239Z,4.54
2019-03-15T01:09:47.559Z,4.54
2019-03-15T01:12:21.160Z,5.42
2019-03-15T01:14:55.920Z,5.00
2019-03-15T01:17:29.304Z,4.89
2019-03-15T01:20:03.121Z,7.48
2019-03-15T01:22:36.407Z,7.25
2019-03-15T01:25:10.569Z,7.28
2019-03-15T01:27:45.777Z,7.08
2019-03-15T01:30:19.562Z,6.46
2019-03-15T01:32:52.873Z,6.42
2019-03-15T01:35:26.139Z,7.51
2019-03-15T01:37:59.463Z,8.54
2019-03-15T01:40:32.658Z,7.74
2019-03-15T01:43:06.198Z,7.46
2019-03-15T01:45:39.486Z,6.36
2019-03-15T01:48:13.403Z,6.55
2019-03-15T01:50:47.778Z,6.94
2019-03-15T01:53:23.467Z,6.16
2019-03-15T01:55:57.163Z,6.07
2019-03-15T01:58:30.389Z,6.63
2019-03-15T02:01:04.545Z,6.92
2019-03-15T02:03:38.309Z,7.20
2019-03-15T02:06:11.714Z,7.49
2019-03-15T02:08:44.985Z,7.64
2019-03-15T02:11:19.834Z,7.54
2019-03-15T02:13:53.075Z,7.84
2019-03-15T02:16:27.293Z,7.87
2019-03-15T02:19:00.608Z,8.27
2019-03-15T02:21:33.866Z,8.33
2019-03-15T02:24:07.090Z,9.02
2019-03-15T02:26:40.440Z,9.87
2019-03-15T02:29:14.742Z,9.77
2019-03-15T02:31:48.120Z,9.17
2019-03-15T02:34:21.482Z,8.63
2019-03-15T02:36:56.577Z,8.79
2019-03-15T02:39:29.832Z,8.69
2019-03-15T02:42:03.125Z,8.46
2019-03-15T02:44:36.553Z,8.96
2019-03-15T02:47:09.871Z,7.93
2019-03-15T02:49:43.299Z,8.38
2019-03-15T02:52:16.534Z,8.57
2019-03-15T02:54:49.825Z,8.04
2019-03-15T02:57:23.029Z,7.89
2019-03-15T02:59:56.337Z,7.74
2019-03-15T03:02:29.809Z,8.20
2019-03-15T03:05:02.958Z,8.50
2019-03-15T03:07:36.543Z,8.75
2019-03-15T03:10:24.202Z,7.78
2019-03-15T03:13:01.367Z,7.75
2019-03-15T03:15:34.581Z,7.66
2019-03-15T03:18:07.802Z,6.96
2019-03-15T03:20:42.818Z,7.25
2019-03-15T03:23:16.138Z,6.74
2019-03-15T03:25:49.493Z,6.99
2019-03-15T03:28:22.805Z,7.07
2019-03-15T03:30:56.152Z,7.00
2019-03-15T03:33:30.890Z,7.55
2019-03-15T03:36:04.245Z,7.55
2019-03-15T03:38:39.097Z,7.74
2019-03-15T03:41:12.343Z,7.73
2019-03-15T03:43:45.924Z,7.41
2019-03-15T03:46:19.275Z,6.75
2019-03-15T03:48:53.989Z,6.94
2019-03-15T03:51:27.375Z,7.30
2019-03-15T03:54:00.694Z,7.42
2019-03-15T03:56:43.855Z,7.27
2019-03-15T03:59:21.521Z,7.45
2019-03-15T04:01:57.196Z,7.43
2019-03-15T04:04:29.286Z,7.13
2019-03-15T04:07:02.744Z,7.41
2019-03-15T04:09:36.264Z,7.62
2019-03-15T04:12:10.939Z,7.40
2019-03-15T04:14:47.117Z,7.49
2019-03-15T04:17:22.086Z,7.35
2019-03-15T04:19:58.416Z,7.17
2019-03-15T04:22:35.608Z,7.05
2019-03-15T04:25:12.075Z,7.21
2019-03-15T04:27:47.153Z,7.44
2019-03-15T04:30:23.910Z,7.36
2019-03-15T04:32:59.409Z,7.30
2019-03-15T04:35:34.596Z,7.38
2019-03-15T04:38:11.115Z,7.82
2019-03-15T04:40:45.063Z,8.11
2019-03-15T04:43:19.328Z,8.19
2019-03-15T04:45:52.685Z,8.19
2019-03-15T04:48:26.270Z,7.82
2019-03-15T04:50:59.705Z,7.03
2019-03-15T04:53:33.101Z,7.51
2019-03-15T04:56:06.388Z,7.71
2019-03-15T04:58:39.897Z,7.73
2019-03-15T05:01:13.293Z,7.68
2019-03-15T05:03:46.907Z,7.55
2019-03-15T05:06:20.140Z,7.63
2019-03-15T05:08:53.477Z,7.83
2019-03-15T05:11:26.964Z,7.60
2019-03-15T05:14:01.675Z,7.47
2019-03-15T05:16:35.176Z,7.06
2019-03-15T05:19:08.449Z,7.05
2019-03-15T05:21:41.680Z,7.88
2019-03-15T05:24:15.295Z,7.49
2019-03-15T05:26:50.009Z,7.27
2019-03-15T05:29:23.226Z,7.13
2019-03-15T05:31:56.514Z,7.20
2019-03-15T05:34:29.677Z,7.53
2019-03-15T05:37:03.458Z,7.68
2019-03-15T05:39:36.686Z,7.73
2019-03-15T05:42:12.488Z,7.81
2019-03-15T05:44:44.896Z,7.52
2019-03-15T05:47:18.902Z,7.61
2019-03-15T05:49:52.236Z,7.63
2019-03-15T05:52:25.565Z,7.67
2019-03-15T05:54:59.018Z,7.40
2019-03-15T05:57:32.410Z,7.09
2019-03-15T06:00:06.685Z,7.17
2019-03-15T06:02:39.999Z,7.58
2019-03-15T06:05:13.598Z,7.68
2019-03-15T06:07:47.051Z,7.73
2019-03-15T06:10:22.505Z,7.74
2019-03-15T06:12:55.110Z,7.70
2019-03-15T06:15:28.623Z,7.64
2019-03-15T06:18:06.696Z,7.62
2019-03-15T06:20:39.246Z,7.63
2019-03-15T06:23:12.569Z,7.33
2019-03-15T06:25:51.796Z,7.80
2019-03-15T06:28:24.179Z,7.11
2019-03-15T06:30:57.522Z,7.15
2019-03-15T06:33:32.147Z,7.46
2019-03-15T06:36:05.615Z,7.35
2019-03-15T06:38:38.989Z,7.67
2019-03-15T06:41:23.684Z,7.81
2019-03-15T06:43:47.809Z,7.70
2019-03-15T06:46:21.519Z,7.12
2019-03-15T06:48:55.159Z,7.29
2019-03-15T06:51:29.837Z,7.24
2019-03-15T06:54:11.492Z,7.06
2019-03-15T06:56:38.447Z,6.88
2019-03-15T06:59:11.947Z,7.00
2019-03-15T07:01:45.188Z,7.22
2019-03-15T07:04:18.599Z,7.20
2019-03-15T07:06:52.271Z,7.04
2019-03-15T07:09:25.847Z,7.07
2019-03-15T07:12:09.380Z,6.67
2019-03-15T07:14:36.265Z,6.71
2019-03-15T07:17:09.516Z,6.92
2019-03-15T07:19:42.990Z,6.96
2019-03-15T07:22:19.943Z,6.78
2019-03-15T07:24:53.388Z,6.84
2019-03-15T07:27:26.757Z,6.69
2019-03-15T07:30:00.575Z,6.95
2019-03-15T07:32:35.308Z,7.01
2019-03-15T07:35:09.465Z,6.95
2019-03-15T07:37:45.387Z,6.84
2019-03-15T07:40:19.121Z,6.87
2019-03-15T07:42:52.635Z,7.10
2019-03-15T07:45:26.286Z,6.89
2019-03-15T07:48:00.958Z,6.91
2019-03-15T07:50:34.437Z,6.32
2019-03-15T07:53:07.997Z,6.73
2019-03-15T07:55:41.805Z,6.59
2019-03-15T07:58:15.060Z,6.50
2019-03-15T08:00:48.552Z,6.24
2019-03-15T08:03:21.884Z,6.46
2019-03-15T08:05:56.230Z,6.40
2019-03-15T08:08:29.515Z,6.42
2019-03-15T08:11:02.805Z,6.58
2019-03-15T08:13:36.228Z,6.12
2019-03-15T08:16:09.607Z,6.29
2019-03-15T08:18:43.010Z,6.34
2019-03-15T08:21:16.413Z,6.29
2019-03-15T08:23:49.792Z,6.49
2019-03-15T08:26:23.122Z,6.13
2019-03-15T08:28:57.000Z,6.31
2019-03-15T08:31:30.252Z,6.34
2019-03-15T08:34:05.275Z,6.02
2019-03-15T08:36:40.046Z,5.56
2019-03-15T08:39:13.598Z,5.55
2019-03-15T08:41:47.056Z,5.55
2019-03-15T08:44:20.419Z,5.49
2019-03-15T08:46:57.148Z,5.47
2019-03-15T08:49:32.115Z,5.16
2019-03-15T08:52:09.553Z,5.32
2019-03-15T08:54:46.406Z,5.24
2019-03-15T08:57:17.867Z,5.21
2019-03-15T08:59:56.830Z,5.22
2019-03-15T09:02:26.952Z,5.04
2019-03-15T09:05:01.544Z,5.04
2019-03-15T09:07:35.157Z,4.98
2019-03-15T09:10:24.035Z,4.92
2019-03-15T09:12:54.411Z,4.80
2019-03-15T09:15:27.677Z,4.83
2019-03-15T09:18:02.401Z,4.72
2019-03-15T09:20:38.695Z,4.69
2019-03-15T09:23:12.144Z,4.53
2019-03-15T09:25:45.811Z,4.47
2019-03-15T09:28:19.070Z,4.45
2019-03-15T09:30:54.094Z,4.33
2019-03-15T09:33:27.732Z,4.31
2019-03-15T09:36:01.310Z,4.17
2019-03-15T09:38:36.360Z,4.21
2019-03-15T09:41:09.744Z,4.20
2019-03-15T09:43:45.448Z,4.07
2019-03-15T09:46:18.671Z,4.01
2019-03-15T09:48:53.042Z,4.05
2019-03-15T09:51:26.568Z,3.96
2019-03-15T09:53:59.987Z,3.74
2019-03-15T09:56:33.813Z,3.74
2019-03-15T09:59:09.377Z,3.77
2019-03-15T10:01:43.211Z,3.69
2019-03-15T10:04:17.420Z,3.63
2019-03-15T10:06:51.648Z,3.61
2019-03-15T10:09:27.956Z,3.58
2019-03-15T10:12:02.163Z,3.56
2019-03-15T10:14:36.707Z,3.59
2019-03-15T10:17:11.224Z,3.42
2019-03-15T10:19:46.034Z,3.29
2019-03-15T10:22:20.837Z,3.28
2019-03-15T10:24:55.996Z,3.23
2019-03-15T10:27:33.197Z,3.26
2019-03-15T10:30:14.851Z,3.19
2019-03-15T10:32:50.984Z,3.12
2019-03-15T10:35:26.960Z,3.10
2019-03-15T10:38:01.962Z,3.17
2019-03-15T10:40:40.152Z,3.18
2019-03-15T10:43:15.190Z,3.02
2019-03-15T10:45:51.955Z,2.95
2019-03-15T10:48:28.841Z,2.77
2019-03-15T10:51:03.990Z,2.75
2019-03-15T10:53:38.519Z,2.62
2019-03-15T10:56:14.233Z,2.34
2019-03-15T10:58:51.579Z,2.31
2019-03-15T11:01:26.219Z,2.28
2019-03-15T11:04:00.953Z,2.24
2019-03-15T11:06:39.001Z,2.19
2019-03-15T11:09:16.079Z,2.13
2019-03-15T11:11:55.043Z,2.04
2019-03-15T11:14:29.188Z,2.13
2019-03-15T11:17:03.066Z,2.21
2019-03-15T11:19:37.109Z,2.30
2019-03-15T11:22:13.269Z,2.26
2019-03-15T11:24:47.210Z,2.14
2019-03-15T11:27:21.637Z,2.09
2019-03-15T11:29:57.592Z,1.85
2019-03-15T11:32:33.243Z,1.71
2019-03-15T11:35:13.032Z,1.61
2019-03-15T11:37:47.108Z,1.47
2019-03-15T11:40:21.213Z,1.46
2019-03-15T11:42:55.213Z,1.55
2019-03-15T11:45:29.439Z,1.41
2019-03-15T11:48:04.469Z,1.25
2019-03-15T11:50:41.307Z,1.36
2019-03-15T11:53:18.716Z,1.13
2019-03-15T11:55:51.378Z,1.20
2019-03-15T11:58:27.774Z,1.09
2019-03-15T12:01:02.270Z,1.09
2019-03-15T12:03:36.566Z,0.89
2019-03-15T12:06:10.935Z,0.70
2019-03-15T12:08:46.943Z,0.76
2019-03-15T12:11:23.228Z,0.94
2019-03-15T12:13:57.756Z,0.75
2019-03-15T12:16:32.274Z,0.77
2019-03-15T12:19:06.771Z,0.66
2019-03-15T12:21:42.974Z,0.87
2019-03-15T12:24:17.386Z,0.58
2019-03-15T12:26:53.927Z,0.71
2019-03-15T12:29:28.645Z,0.55
2019-03-15T12:32:03.509Z,0.62
2019-03-15T12:34:40.145Z,0.41
2019-03-15T12:37:15.605Z,0.46
2019-03-15T12:39:50.620Z,0.46
2019-03-15T12:42:27.595Z,0.36
2019-03-15T12:45:03.766Z,0.31
2019-03-15T12:47:39.399Z,0.34
2019-03-15T12:50:18.058Z,0.28
2019-03-15T12:52:52.825Z,0.24
2019-03-15T12:55:29.354Z,0.13
2019-03-15T12:58:03.346Z,0.08
2019-03-15T13:00:37.427Z,0.05
2019-03-15T13:03:12.041Z,0.02
2019-03-15T13:05:46.526Z,-0.03
2019-03-15T13:08:20.937Z,0.06
2019-03-15T13:10:55.035Z,-0.08
2019-03-15T13:13:29.787Z,-0.12
2019-03-15T13:16:05.841Z,-0.08
2019-03-15T13:18:42.611Z,-0.14
2019-03-15T13:21:20.802Z,-0.22
2019-03-15T13:23:55.564Z,-0.25
2019-03-15T13:26:30.367Z,-0.33
2019-03-15T13:29:05.241Z,-0.33
2019-03-15T13:31:39.753Z,-0.31
2019-03-15T13:34:14.432Z,-0.38
2019-03-15T13:36:53.988Z,-0.48
2019-03-15T13:39:28.627Z,-0.49
2019-03-15T13:42:02.525Z,-0.49
2019-03-15T13:44:38.397Z,-0.64
2019-03-15T13:47:14.678Z,-0.61
2019-03-15T13:49:52.853Z,-0.64
2019-03-15T13:52:27.487Z,-0.69
2019-03-15T13:55:01.825Z,-0.62
2019-03-15T13:57:36.196Z,-0.66
2019-03-15T14:00:16.132Z,-0.72
2019-03-15T14:02:50.640Z,-0.70
2019-03-15T14:05:24.511Z,-0.76
2019-03-15T14:08:11.217Z,-0.86
2019-03-15T14:10:49.291Z,-0.71
2019-03-15T14:13:15.519Z,-0.74
2019-03-15T14:15:51.744Z,-0.92
2019-03-15T14:18:26.651Z,-0.96
2019-03-15T14:21:03.559Z,-0.84
2019-03-15T14:23:38.367Z,-0.81
2019-03-15T14:26:12.550Z,-0.95
2019-03-15T14:28:47.026Z,-0.94
2019-03-15T14:31:21.844Z,-0.98
2019-03-15T14:33:56.345Z,-1.05
2019-03-15T14:36:31.883Z,-1.11
2019-03-15T14:39:06.769Z,-1.09
2019-03-15T14:41:41.116Z,-1.10
2019-03-15T14:44:18.076Z,-1.26
2019-03-15T14:46:50.324Z,-1.21
2019-03-15T14:49:24.748Z,-1.24
2019-03-15T14:51:59.832Z,-1.25
2019-03-15T14:54:34.381Z,-1.33
2019-03-15T14:57:10.440Z,-1.31
2019-03-15T14:59:44.879Z,-1.37
2019-03-15T15:02:18.916Z,-1.50
2019-03-15T15:04:53.363Z,-1.50
2019-03-15T15:07:27.791Z,-1.53
2019-03-15T15:10:03.421Z,-1.55
2019-03-15T15:12:37.678Z,-1.61
2019-03-15T15:15:13.974Z,-1.57
2019-03-15T15:17:48.096Z,-1.62
2019-03-15T15:20:23.012Z,-1.57
2019-03-15T15:22:56.826Z,-1.76
2019-03-15T15:25:33.706Z,-1.82
2019-03-15T15:28:07.767Z,-1.88
2019-03-15T15:30:41.982Z,-1.92
2019-03-15T15:33:16.192Z,-1.86
2019-03-15T15:35:51.084Z,-1.82
2019-03-15T15:38:24.716Z,-1.86
2019-03-15T15:40:59.083Z,-1.93
2019-03-15T15:43:33.235Z,-1.83
2019-03-15T15:46:07.420Z,-1.83
2019-03-15T15:48:41.534Z,-1.71
2019-03-15T15:51:16.555Z,-1.92
2019-03-15T15:53:50.245Z,-1.84
2019-03-15T15:56:25.080Z,-1.99
2019-03-15T15:59:02.903Z,-1.94
2019-03-15T16:01:37.124Z,-1.90
2019-03-15T16:04:11.068Z,-1.89
2019-03-15T16:06:44.802Z,-1.81
2019-03-15T16:09:18.393Z,-1.74
2019-03-15T16:11:53.803Z,-1.79
2019-03-15T16:14:27.492Z,-1.76
2019-03-15T16:17:01.394Z,-1.94
2019-03-15T16:19:35.209Z,-1.86
2019-03-15T16:22:09.269Z,-1.91
2019-03-15T16:24:43.270Z,-1.91
2019-03-15T16:27:17.413Z,-2.00
2019-03-15T16:29:51.571Z,-1.94
2019-03-15T16:32:27.342Z,-1.96
2019-03-15T16:35:01.104Z,-1.90
2019-03-15T16:37:35.296Z,-2.30
2019-03-15T16:40:11.580Z,-2.35
2019-03-15T16:42:46.132Z,-2.27
2019-03-15T16:45:30.446Z,-2.25
2019-03-15T16:48:04.812Z,-2.40
2019-03-15T16:50:38.903Z,-2.40
2019-03-15T16:53:14.313Z,-2.43
2019-03-15T16:55:50.712Z,-2.56
2019-03-15T16:58:24.792Z,-2.52
2019-03-15T17:00:58.668Z,-2.53
2019-03-15T17:03:31.958Z,-2.61
2019-03-15T17:06:05.247Z,-2.44
2019-03-15T17:08:40.504Z,-2.68
2019-03-15T17:11:14.234Z,-2.77
2019-03-15T17:13:47.907Z,-2.74
2019-03-15T17:16:21.564Z,-2.75
2019-03-15T17:18:55.709Z,-2.80
2019-03-15T17:21:29.117Z,-2.76
2019-03-15T17:24:06.097Z,-2.89
2019-03-15T17:26:40.125Z,-2.92
2019-03-15T17:29:13.523Z,-2.89
2019-03-15T17:31:47.259Z,-2.83
2019-03-15T17:34:20.646Z,-2.97
2019-03-15T17:37:06.161Z,-3.05
2019-03-15T17:39:29.573Z,-3.28
2019-03-15T17:42:03.894Z,-3.23
2019-03-15T17:44:37.685Z,-3.34
2019-03-15T17:47:12.437Z,-3.25
2019-03-15T17:49:46.151Z,-3.43
2019-03-15T17:52:20.267Z,-3.53
2019-03-15T17:54:53.934Z,-3.44
2019-03-15T17:57:27.560Z,-3.58
2019-03-15T18:00:21.564Z,-3.70
2019-03-15T18:02:55.722Z,-3.78
2019-03-15T18:05:29.545Z,-3.62
2019-03-15T18:08:05.721Z,-3.49
2019-03-15T18:10:39.681Z,-3.42
2019-03-15T18:13:13.736Z,-3.27
2019-03-15T18:15:51.120Z,-3.23
2019-03-15T18:18:30.555Z,-3.28
2019-03-15T18:21:10.565Z,-3.33
2019-03-15T18:23:46.486Z,-3.55
2019-03-15T18:26:20.210Z,-3.52
2019-03-15T18:28:53.894Z,-3.74
2019-03-15T18:31:27.494Z,-3.74
2019-03-15T18:34:03.050Z,-3.91
2019-03-15T18:36:36.846Z,-3.69
2019-03-15T18:39:10.932Z,-3.69
2019-03-15T18:41:45.735Z,-3.72
2019-03-15T18:44:19.701Z,-3.59
2019-03-15T18:46:55.397Z,-3.59
2019-03-15T18:49:31.150Z,-3.68
2019-03-15T18:52:04.933Z,-3.93
2019-03-15T18:54:38.618Z,-3.97
2019-03-15T18:57:12.503Z,-3.72
2019-03-15T18:59:47.491Z,-3.63
2019-03-15T19:02:21.376Z,-3.76
2019-03-15T19:04:55.194Z,-3.75
2019-03-15T19:07:29.197Z,-3.88
2019-03-15T19:10:03.006Z,-3.96
2019-03-15T19:12:40.076Z,-4.05
2019-03-15T19:15:22.267Z,-4.20
2019-03-15T19:17:56.162Z,-4.02
2019-03-15T19:20:30.075Z,-3.80
2019-03-15T19:23:04.872Z,-4.11
2019-03-15T19:25:40.416Z,-4.13
2019-03-15T19:28:14.290Z,-4.06
2019-03-15T19:30:48.118Z,-3.93
2019-03-15T19:33:21.349Z,-3.96
2019-03-15T19:35:54.714Z,-4.07
2019-03-15T19:38:28.006Z,-4.12
2019-03-15T19:41:02.223Z,-3.92
2019-03-15T19:43:35.675Z,-3.94
2019-03-15T19:46:09.195Z,-3.82
2019-03-15T19:48:42.457Z,-3.71
2019-03-15T19:51:15.683Z,-3.87
2019-03-15T19:53:49.154Z,-4.09
2019-03-15T19:56:23.766Z,-4.06
2019-03-15T19:58:57.644Z,-4.01
2019-03-15T20:01:30.985Z,-4.10
2019-03-15T20:04:05.985Z,-3.96
2019-03-15T20:06:39.425Z,-3.97
2019-03-15T20:09:12.790Z,-4.00
2019-03-15T20:11:46.082Z,-4.08
2019-03-15T20:14:19.386Z,-4.04
2019-03-15T20:16:52.787Z,-3.92
2019-03-15T20:19:26.032Z,-3.98
2019-03-15T20:22:00.611Z,-3.95
2019-03-15T20:24:36.842Z,-4.08
2019-03-15T20:27:11.417Z,-3.98
2019-03-15T20:29:45.982Z,-4.12
2019-03-15T20:32:19.270Z,-4.11
2019-03-15T20:34:52.734Z,-4.17
2019-03-15T20:37:26.088Z,-4.15
2019-03-15T20:39:59.303Z,-4.17
2019-03-15T20:42:35.545Z,-4.20
2019-03-15T20:45:19.924Z,-4.30
2019-03-15T20:47:53.325Z,-4.29
2019-03-15T20:50:26.537Z,-4.42
2019-03-15T20:53:08.092Z,-4.49
2019-03-15T20:55:35.141Z,-4.52
2019-03-15T20:58:08.529Z,-4.48
2019-03-15T21:00:41.848Z,-4.48
2019-03-15T21:03:15.176Z,-4.48
2019-03-15T21:05:48.413Z,-4.57
2019-03-15T21:08:21.704Z,-4.55
2019-03-15T21:10:55.018Z,-4.49
2019-03-15T21:13:28.235Z,-4.48
2019-03-15T21:16:01.633Z,-4.52
2019-03-15T21:18:35.372Z,-4.45
2019-03-15T21:21:08.652Z,-4.59
2019-03-15T21:23:42.005Z,-4.53
2019-03-15T21:26:15.204Z,-4.50
2019-03-15T21:28:49.750Z,-4.65
2019-03-15T21:31:22.956Z,-4.54
2019-03-15T21:33:57.756Z,-4.63
2019-03-15T21:36:31.039Z,-4.43
2019-03-15T21:39:05.823Z,-4.52
2019-03-15T21:41:40.720Z,-4.58
2019-03-15T21:44:17.198Z,-4.50
2019-03-15T21:46:48.704Z,-4.74
2019-03-15T21:49:23.271Z,-4.66
2019-03-15T21:51:58.198Z,-4.52
2019-03-15T21:54:31.596Z,-4.50
2019-03-15T21:57:05.444Z,-4.46
2019-03-15T21:59:40.520Z,-4.48
2019-03-15T22:02:16.486Z,-4.37
2019-03-15T22:04:49.905Z,-4.39
2019-03-15T22:07:23.145Z,-4.28
2019-03-15T22:09:56.436Z,-4.21
2019-03-15T22:12:29.879Z,-4.08
2019-03-15T22:15:03.205Z,-4.07
2019-03-15T22:17:36.663Z,-4.06
2019-03-15T22:20:20.947Z,-3.93
2019-03-15T22:22:54.230Z,-3.89
2019-03-15T22:25:27.487Z,-3.85
2019-03-15T22:28:02.449Z,-3.76
2019-03-15T22:30:35.876Z,-3.57
2019-03-15T22:33:09.287Z,-3.39
2019-03-15T22:35:42.680Z,-3.28
2019-03-15T22:38:25.622Z,-3.34
2019-03-15T22:40:50.674Z,-3.30
2019-03-15T22:43:23.980Z,-3.24
2019-03-15T22:45:57.406Z,-3.16
2019-03-15T22:48:30.824Z,-2.99
2019-03-15T22:51:04.059Z,-2.95
2019-03-15T22:53:37.390Z,-2.82
2019-03-15T22:56:10.806Z,-2.70
2019-03-15T22:58:45.862Z,-2.61
2019-03-15T23:01:29.671Z,-2.43
2019-03-15T23:03:53.717Z,-2.38
2019-03-15T23:06:27.190Z,-2.12
2019-03-15T23:09:00.684Z,-2.07
2019-03-15T23:11:35.145Z,-1.97
2019-03-15T23:14:08.696Z,-1.55
2019-03-15T23:16:42.396Z,-1.23
2019-03-15T23:19:16.006Z,-1.09
2019-03-15T23:21:51.740Z,-0.68
2019-03-15T23:24:24.101Z,-0.70
2019-03-15T23:26:57.764Z,-0.83
2019-03-15T23:29:31.168Z,-0.74
2019-03-15T23:32:04.384Z,-0.75
2019-03-15T23:34:40.992Z,-0.73
2019-03-15T23:37:14.417Z,-0.28
2019-03-15T23:39:47.756Z,0.13
2019-03-15T23:42:21.373Z,1.10
2019-03-15T23:44:59.645Z,1.57
2019-03-15T23:47:33.087Z,1.42
2019-03-15T23:50:11.689Z,1.49
2019-03-15T23:52:48.203Z,1.91
2019-03-15T23:55:22.784Z,2.16
2019-03-15T23:57:56.097Z,2.74
